sensor_id;sensor_type;location;lat;lon;timestamp;pressure;altitude;pressure_sealevel;temperature;humidity
19023;BME280;35226;48.606;8.858;2023-05-11T00:01:06;96096.78;;;10.82;100.00
19023;BME280;35226;48.606;8.858;2023-05-11T00:03:33;96090.94;;;10.80;100.00
19023;BME280;35226;48.606;8.858;2023-05-11T00:05:59;96081.28;;;10.84;100.00
19023;BME280;35226;48.606;8.858;2023-05-11T00:08:24;96089.78;;;10.90;100.00
19023;BME280;35226;48.606;8.858;2023-05-11T00:10:50;96086.69;;;10.88;100.00
19023;BME280;35226;48.606;8.858;2023-05-11T00:13:16;96081.63;;;10.86;100.00
19023;BME280;35226;48.606;8.858;2023-05-11T00:15:41;96085.91;;;10.87;100.00
19023;BME280;35226;48.606;8.858;2023-05-11T00:18:07;96089.78;;;10.90;100.00
19023;BME280;35226;48.606;8.858;2023-05-11T00:20:32;96089.44;;;10.88;100.00
19023;BME280;35226;48.606;8.858;2023-05-11T00:22:58;96085.28;;;10.83;100.00
19023;BME280;35226;48.606;8.858;2023-05-11T00:25:24;96083.72;;;10.82;100.00
19023;BME280;35226;48.606;8.858;2023-05-11T00:27:49;96086.56;;;10.69;100.00
19023;BME280;35226;48.606;8.858;2023-05-11T00:30:15;96082.41;;;10.87;100.00
19023;BME280;35226;48.606;8.858;2023-05-11T00:32:42;96080.38;;;10.87;100.00
19023;BME280;35226;48.606;8.858;2023-05-11T00:35:11;96082.06;;;10.85;100.00
19023;BME280;35226;48.606;8.858;2023-05-11T00:37:37;96084.38;;;10.86;100.00
19023;BME280;35226;48.606;8.858;2023-05-11T00:40:03;96079.31;;;10.85;100.00
19023;BME280;35226;48.606;8.858;2023-05-11T00:42:29;96079.16;;;10.88;100.00
19023;BME280;35226;48.606;8.858;2023-05-11T00:44:55;96075.00;;;10.84;100.00
19023;BME280;35226;48.606;8.858;2023-05-11T00:47:20;96080.47;;;10.74;100.00
19023;BME280;35226;48.606;8.858;2023-05-11T00:49:48;96072.63;;;10.73;100.00
19023;BME280;35226;48.606;8.858;2023-05-11T00:52:14;96075.00;;;10.84;100.00
19023;BME280;35226;48.606;8.858;2023-05-11T00:54:40;96073.13;;;10.81;100.00
19023;BME280;35226;48.606;8.858;2023-05-11T00:57:06;96072.34;;;10.80;100.00
19023;BME280;35226;48.606;8.858;2023-05-11T00:59:32;96068.25;;;10.85;100.00
19023;BME280;35226;48.606;8.858;2023-05-11T01:01:57;96063.78;;;10.87;100.00
19023;BME280;35226;48.606;8.858;2023-05-11T01:04:23;96061.50;;;10.86;100.00
19023;BME280;35226;48.606;8.858;2023-05-11T01:07:25;96063.78;;;10.87;100.00
19023;BME280;35226;48.606;8.858;2023-05-11T01:15:12;96062.72;;;10.85;100.00
19023;BME280;35226;48.606;8.858;2023-05-11T01:17:48;96075.00;;;10.84;100.00
19023;BME280;35226;48.606;8.858;2023-05-11T01:20:22;96068.69;;;10.83;100.00
19023;BME280;35226;48.606;8.858;2023-05-11T01:26:02;96073.44;;;10.83;100.00
19023;BME280;35226;48.606;8.858;2023-05-11T01:31:18;96068.88;;;10.89;100.00
19023;BME280;35226;48.606;8.858;2023-05-11T01:33:53;96064.72;;;10.84;100.00
19023;BME280;35226;48.606;8.858;2023-05-11T01:36:24;96070.25;;;10.84;100.00
19023;BME280;35226;48.606;8.858;2023-05-11T01:38:53;96065.59;;;10.81;100.00
19023;BME280;35226;48.606;8.858;2023-05-11T01:41:20;96068.81;;;10.80;100.00
19023;BME280;35226;48.606;8.858;2023-05-11T01:43:54;96064.38;;;10.82;100.00
19023;BME280;35226;48.606;8.858;2023-05-11T01:46:29;96062.97;;;10.77;100.00
19023;BME280;35226;48.606;8.858;2023-05-11T01:48:57;96066.06;;;10.80;100.00
19023;BME280;35226;48.606;8.858;2023-05-11T01:51:26;96066.81;;;10.80;100.00
19023;BME280;35226;48.606;8.858;2023-05-11T01:53:53;96069.59;;;10.80;100.00
19023;BME280;35226;48.606;8.858;2023-05-11T01:56:21;96069.47;;;10.84;100.00
19023;BME280;35226;48.606;8.858;2023-05-11T01:58:48;96076.53;;;10.85;100.00
19023;BME280;35226;48.606;8.858;2023-05-11T02:01:16;96074.50;;;10.76;100.00
19023;BME280;35226;48.606;8.858;2023-05-11T02:03:45;96072.94;;;10.75;100.00
19023;BME280;35226;48.606;8.858;2023-05-11T02:06:12;96076.94;;;10.74;100.00
19023;BME280;35226;48.606;8.858;2023-05-11T02:08:40;96080.03;;;10.76;100.00
19023;BME280;35226;48.606;8.858;2023-05-11T02:11:07;96080.31;;;10.78;100.00
19023;BME280;35226;48.606;8.858;2023-05-11T02:13:36;96077.50;;;10.69;100.00
19023;BME280;35226;48.606;8.858;2023-05-11T02:16:05;96071.19;;;10.68;100.00
19023;BME280;35226;48.606;8.858;2023-05-11T02:18:31;96079.66;;;10.52;100.00
19023;BME280;35226;48.606;8.858;2023-05-11T02:20:59;96077.81;;;10.71;100.00
19023;BME280;35226;48.606;8.858;2023-05-11T02:23:26;96077.81;;;10.71;100.00
19023;BME280;35226;48.606;8.858;2023-05-11T02:25:53;96086.22;;;10.67;100.00
19023;BME280;35226;48.606;8.858;2023-05-11T02:28:20;96081.94;;;10.66;100.00
19023;BME280;35226;48.606;8.858;2023-05-11T02:30:48;96083.13;;;10.44;100.00
19023;BME280;35226;48.606;8.858;2023-05-11T02:33:25;96080.03;;;10.42;100.00
19023;BME280;35226;48.606;8.858;2023-05-11T02:35:54;96077.78;;;10.49;100.00
19023;BME280;35226;48.606;8.858;2023-05-11T02:38:32;96086.69;;;10.66;100.00
19023;BME280;35226;48.606;8.858;2023-05-11T02:41:04;96080.41;;;10.65;100.00
19023;BME280;35226;48.606;8.858;2023-05-11T02:43:34;96077.31;;;10.63;100.00
19023;BME280;35226;48.606;8.858;2023-05-11T02:46:07;96080.19;;;10.60;100.00
19023;BME280;35226;48.606;8.858;2023-05-11T02:48:43;96071.97;;;10.47;100.00
19023;BME280;35226;48.606;8.858;2023-05-11T02:51:14;96083.59;;;10.64;100.00
19023;BME280;35226;48.606;8.858;2023-05-11T02:53:45;96077.75;;;10.62;100.00
19023;BME280;35226;48.606;8.858;2023-05-11T02:56:13;96083.72;;;10.60;100.00
19023;BME280;35226;48.606;8.858;2023-05-11T02:58:39;96075.25;;;10.55;100.00
19023;BME280;35226;48.606;8.858;2023-05-11T03:01:19;96075.25;;;10.55;100.00
19023;BME280;35226;48.606;8.858;2023-05-11T03:03:45;96083.41;;;10.58;100.00
19023;BME280;35226;48.606;8.858;2023-05-11T03:06:11;96083.09;;;10.56;100.00
19023;BME280;35226;48.606;8.858;2023-05-11T03:08:37;96077.88;;;10.58;100.00
19023;BME280;35226;48.606;8.858;2023-05-11T03:11:03;96074.81;;;10.56;100.00
19023;BME280;35226;48.606;8.858;2023-05-11T03:13:30;96077.25;;;10.54;100.00
19023;BME280;35226;48.606;8.858;2023-05-11T03:15:59;96072.81;;;10.57;100.00
19023;BME280;35226;48.606;8.858;2023-05-11T03:18:28;96070.16;;;10.53;100.00
19023;BME280;35226;48.606;8.858;2023-05-11T03:20:56;96064.97;;;10.55;100.00
19023;BME280;35226;48.606;8.858;2023-05-11T03:23:25;96067.06;;;10.51;100.00
19023;BME280;35226;48.606;8.858;2023-05-11T03:25:52;96069.84;;;10.51;100.00
19023;BME280;35226;48.606;8.858;2023-05-11T03:28:18;96067.06;;;10.51;100.00
19023;BME280;35226;48.606;8.858;2023-05-11T03:30:55;96065.41;;;10.54;100.00
19023;BME280;35226;48.606;8.858;2023-05-11T03:33:21;96068.28;;;10.50;100.00
19023;BME280;35226;48.606;8.858;2023-05-11T03:35:49;96072.59;;;10.51;100.00
19023;BME280;35226;48.606;8.858;2023-05-11T03:38:22;96061.22;;;10.49;100.00
19023;BME280;35226;48.606;8.858;2023-05-11T03:40:51;96059.81;;;10.45;100.00
19023;BME280;35226;48.606;8.858;2023-05-11T03:43:19;96071.66;;;10.45;100.00
19023;BME280;35226;48.606;8.858;2023-05-11T03:45:49;96064.47;;;10.48;100.00
19023;BME280;35226;48.606;8.858;2023-05-11T03:48:18;96063.34;;;10.45;100.00
19023;BME280;35226;48.606;8.858;2023-05-11T03:50:45;96066.88;;;10.46;100.00
19023;BME280;35226;48.606;8.858;2023-05-11T03:53:12;96056.91;;;10.48;100.00
19023;BME280;35226;48.606;8.858;2023-05-11T03:55:38;96057.50;;;10.43;100.00
19023;BME280;35226;48.606;8.858;2023-05-11T03:58:10;96050.31;;;10.46;100.00
19023;BME280;35226;48.606;8.858;2023-05-11T04:00:40;96052.94;;;10.49;100.00
19023;BME280;35226;48.606;8.858;2023-05-11T04:03:07;96044.22;;;10.51;100.00
19023;BME280;35226;48.606;8.858;2023-05-11T04:05:33;96054.75;;;10.43;100.00
19023;BME280;35226;48.606;8.858;2023-05-11T04:08:01;96059.22;;;10.50;100.00
19023;BME280;35226;48.606;8.858;2023-05-11T04:10:28;96059.38;;;10.46;100.00
19023;BME280;35226;48.606;8.858;2023-05-11T04:18:22;96049.41;;;10.49;100.00
19023;BME280;35226;48.606;8.858;2023-05-11T04:20:47;96046.66;;;10.49;100.00
19023;BME280;35226;48.606;8.858;2023-05-11T04:23:14;96062.59;;;10.45;100.00
19023;BME280;35226;48.606;8.858;2023-05-11T04:25:39;96056.47;;;10.50;100.00
19023;BME280;35226;48.606;8.858;2023-05-11T04:28:05;96055.69;;;10.49;100.00
19023;BME280;35226;48.606;8.858;2023-05-11T04:30:31;96056.03;;;10.51;100.00
19023;BME280;35226;48.606;8.858;2023-05-11T04:32:56;96057.56;;;10.52;100.00
19023;BME280;35226;48.606;8.858;2023-05-11T04:35:23;96062.97;;;10.56;100.00
19023;BME280;35226;48.606;8.858;2023-05-11T04:37:49;96063.44;;;10.54;100.00
19023;BME280;35226;48.606;8.858;2023-05-11T04:40:15;96062.66;;;10.54;100.00
19023;BME280;35226;48.606;8.858;2023-05-11T04:42:42;96066.97;;;10.55;100.00
19023;BME280;35226;48.606;8.858;2023-05-11T04:45:13;96060.34;;;10.52;100.00
19023;BME280;35226;48.606;8.858;2023-05-11T04:47:38;96070.50;;;10.55;100.00
19023;BME280;35226;48.606;8.858;2023-05-11T04:50:06;96064.19;;;10.55;100.00
19023;BME280;35226;48.606;8.858;2023-05-11T04:52:33;96061.00;;;10.56;100.00
19023;BME280;35226;48.606;8.858;2023-05-11T04:54:59;96070.81;;;10.57;100.00
19023;BME280;35226;48.606;8.858;2023-05-11T04:57:24;96060.22;;;10.56;100.00
19023;BME280;35226;48.606;8.858;2023-05-11T04:59:50;96066.03;;;10.58;100.00
19023;BME280;35226;48.606;8.858;2023-05-11T05:02:16;96066.81;;;10.58;100.00
19023;BME280;35226;48.606;8.858;2023-05-11T05:20:53;96076.28;;;10.70;100.00
19023;BME280;35226;48.606;8.858;2023-05-11T05:23:19;96068.31;;;10.72;100.00
19023;BME280;35226;48.606;8.858;2023-05-11T05:25:44;96070.56;;;10.64;100.00
19023;BME280;35226;48.606;8.858;2023-05-11T05:28:10;96071.19;;;10.68;100.00
19023;BME280;35226;48.606;8.858;2023-05-11T05:30:35;96072.75;;;10.69;100.00
19023;BME280;35226;48.606;8.858;2023-05-11T05:33:01;96081.25;;;10.75;100.00
19023;BME280;35226;48.606;8.858;2023-05-11T05:35:27;96076.03;;;10.77;100.00
19023;BME280;35226;48.606;8.858;2023-05-11T05:37:53;96072.16;;;10.74;100.00
19023;BME280;35226;48.606;8.858;2023-05-11T05:40:18;96072.63;;;10.73;100.00
19023;BME280;35226;48.606;8.858;2023-05-11T05:42:48;96077.09;;;10.80;100.00
19023;BME280;35226;48.606;8.858;2023-05-11T05:45:18;96078.03;;;10.77;100.00
19023;BME280;35226;48.606;8.858;2023-05-11T05:47:44;96071.72;;;10.76;100.00
19023;BME280;35226;48.606;8.858;2023-05-11T05:50:10;96076.16;;;10.73;100.00
19023;BME280;35226;48.606;8.858;2023-05-11T05:52:36;96074.94;;;10.74;100.00
19023;BME280;35226;48.606;8.858;2023-05-11T05:55:02;96076.34;;;10.79;100.00
19023;BME280;35226;48.606;8.858;2023-05-11T05:57:28;96077.00;;;10.83;100.00
19023;BME280;35226;48.606;8.858;2023-05-11T05:59:55;96076.22;;;10.83;100.00
19023;BME280;35226;48.606;8.858;2023-05-11T06:02:21;96081.41;;;10.81;100.00
19023;BME280;35226;48.606;8.858;2023-05-11T06:04:46;96082.19;;;10.81;100.00
19023;BME280;35226;48.606;8.858;2023-05-11T06:07:12;96083.63;;;10.86;100.00
19023;BME280;35226;48.606;8.858;2023-05-11T06:09:38;96080.38;;;10.87;100.00
19023;BME280;35226;48.606;8.858;2023-05-11T06:12:04;96080.13;;;10.94;100.00
19023;BME280;35226;48.606;8.858;2023-05-11T06:14:32;96083.53;;;10.98;100.00
19023;BME280;35226;48.606;8.858;2023-05-11T06:16:59;96084.75;;;10.97;100.00
19023;BME280;35226;48.606;8.858;2023-05-11T06:19:27;96078.66;;;11.02;100.00
19023;BME280;35226;48.606;8.858;2023-05-11T06:21:53;96077.59;;;11.09;100.00
19023;BME280;35226;48.606;8.858;2023-05-11T06:24:18;96072.84;;;11.09;100.00
19023;BME280;35226;48.606;8.858;2023-05-11T06:26:45;96081.47;;;11.11;100.00
19023;BME280;35226;48.606;8.858;2023-05-11T06:29:12;96069.34;;;11.18;100.00
19023;BME280;35226;48.606;8.858;2023-05-11T06:31:38;96078.75;;;11.21;100.00
19023;BME280;35226;48.606;8.858;2023-05-11T06:34:04;96071.53;;;11.23;100.00
19023;BME280;35226;48.606;8.858;2023-05-11T06:36:30;96072.38;;;11.33;100.00
19023;BME280;35226;48.606;8.858;2023-05-11T06:38:56;96068.69;;;11.36;100.00
19023;BME280;35226;48.606;8.858;2023-05-11T06:41:22;96071.31;;;11.39;100.00
19023;BME280;35226;48.606;8.858;2023-05-11T06:43:47;96071.63;;;11.41;100.00
19023;BME280;35226;48.606;8.858;2023-05-11T06:46:33;96076.25;;;11.44;100.00
19023;BME280;35226;48.606;8.858;2023-05-11T06:48:58;96067.22;;;11.53;100.00
19023;BME280;35226;48.606;8.858;2023-05-11T06:51:25;96069.22;;;11.53;100.00
19023;BME280;35226;48.606;8.858;2023-05-11T06:53:50;96066.16;;;11.60;100.00
19023;BME280;35226;48.606;8.858;2023-05-11T06:56:16;96065.25;;;11.63;100.00
19023;BME280;35226;48.606;8.858;2023-05-11T06:58:41;96062.50;;;11.63;100.00
19023;BME280;35226;48.606;8.858;2023-05-11T07:01:07;96066.03;;;11.63;100.00
19023;BME280;35226;48.606;8.858;2023-05-11T07:03:33;96063.09;;;11.67;100.00
19023;BME280;35226;48.606;8.858;2023-05-11T07:05:59;96063.72;;;11.62;100.00
19023;BME280;35226;48.606;8.858;2023-05-11T07:08:24;96067.75;;;11.70;100.00
19023;BME280;35226;48.606;8.858;2023-05-11T07:10:50;96061.88;;;11.68;100.00
19023;BME280;35226;48.606;8.858;2023-05-11T07:13:15;96057.41;;;11.61;100.00
19023;BME280;35226;48.606;8.858;2023-05-11T07:15:41;96064.84;;;11.73;100.00
19023;BME280;35226;48.606;8.858;2023-05-11T07:18:06;96060.84;;;11.74;100.00
19023;BME280;35226;48.606;8.858;2023-05-11T07:20:32;96058.66;;;11.69;100.00
19023;BME280;35226;48.606;8.858;2023-05-11T07:22:58;96060.66;;;11.69;100.00
19023;BME280;35226;48.606;8.858;2023-05-11T07:25:24;96065.88;;;11.67;100.00
19023;BME280;35226;48.606;8.858;2023-05-11T07:27:49;96067.72;;;11.61;100.00
19023;BME280;35226;48.606;8.858;2023-05-11T07:30:15;96070.03;;;11.62;100.00
19023;BME280;35226;48.606;8.858;2023-05-11T07:32:40;96074.31;;;11.54;100.00
19023;BME280;35226;48.606;8.858;2023-05-11T07:35:06;96074.91;;;11.58;100.00
19023;BME280;35226;48.606;8.858;2023-05-11T07:37:32;96076.91;;;11.58;100.00
19023;BME280;35226;48.606;8.858;2023-05-11T07:39:57;96068.00;;;11.54;100.00
19023;BME280;35226;48.606;8.858;2023-05-11T07:42:23;96077.56;;;11.62;100.00
19023;BME280;35226;48.606;8.858;2023-05-11T07:44:48;96073.22;;;11.52;100.00
19023;BME280;35226;48.606;8.858;2023-05-11T07:47:13;96078.47;;;11.59;100.00
19023;BME280;35226;48.606;8.858;2023-05-11T07:49:39;96077.69;;;11.58;100.00
19023;BME280;35226;48.606;8.858;2023-05-11T07:52:05;96071.69;;;11.60;100.00
19023;BME280;35226;48.606;8.858;2023-05-11T07:54:31;96074.78;;;11.62;100.00
19023;BME280;35226;48.606;8.858;2023-05-11T07:56:56;96072.91;;;11.59;100.00
19023;BME280;35226;48.606;8.858;2023-05-11T07:59:22;96073.28;;;11.70;100.00
19023;BME280;35226;48.606;8.858;2023-05-11T08:01:47;96067.25;;;11.62;100.00
19023;BME280;35226;48.606;8.858;2023-05-11T08:04:13;96068.66;;;11.67;100.00
19023;BME280;35226;48.606;8.858;2023-05-11T08:06:38;96078.69;;;11.73;100.00
19023;BME280;35226;48.606;8.858;2023-05-11T08:09:04;96079.44;;;11.74;100.00
19023;BME280;35226;48.606;8.858;2023-05-11T08:11:30;96076.88;;;11.79;100.00
19023;BME280;35226;48.606;8.858;2023-05-11T08:13:55;96077.31;;;11.78;100.00
19023;BME280;35226;48.606;8.858;2023-05-11T08:16:21;96074.25;;;11.85;100.00
19023;BME280;35226;48.606;8.858;2023-05-11T08:18:46;96085.19;;;11.89;100.00
19023;BME280;35226;48.606;8.858;2023-05-11T08:21:13;96084.13;;;11.86;100.00
19023;BME280;35226;48.606;8.858;2023-05-11T08:23:38;96073.69;;;11.99;100.00
19023;BME280;35226;48.606;8.858;2023-05-11T08:26:04;96077.69;;;11.98;100.00
19023;BME280;35226;48.606;8.858;2023-05-11T08:28:29;96074.16;;;12.07;100.00
19023;BME280;35226;48.606;8.858;2023-05-11T08:30:56;96074.34;;;12.12;100.00
19023;BME280;35226;48.606;8.858;2023-05-11T08:33:21;96078.47;;;12.08;100.00
19023;BME280;35226;48.606;8.858;2023-05-11T08:35:47;96076.47;;;12.08;100.00
19023;BME280;35226;48.606;8.858;2023-05-11T08:38:13;96074.81;;;12.11;100.00
19023;BME280;35226;48.606;8.858;2023-05-11T08:40:39;96072.03;;;12.11;100.00
19023;BME280;35226;48.606;8.858;2023-05-11T08:43:12;96080.94;;;12.15;100.00
19023;BME280;35226;48.606;8.858;2023-05-11T08:45:40;96072.97;;;12.17;100.00
19023;BME280;35226;48.606;8.858;2023-05-11T08:48:06;96079.72;;;12.16;100.00
19023;BME280;35226;48.606;8.858;2023-05-11T08:50:32;96070.81;;;12.12;100.00
19023;BME280;35226;48.606;8.858;2023-05-11T08:52:57;96074.94;;;12.16;100.00
19023;BME280;35226;48.606;8.858;2023-05-11T08:55:23;96070.19;;;12.17;100.00
19023;BME280;35226;48.606;8.858;2023-05-11T08:57:51;96073.13;;;12.13;100.00
19023;BME280;35226;48.606;8.858;2023-05-11T09:00:17;96068.19;;;12.17;100.00
19023;BME280;35226;48.606;8.858;2023-05-11T09:02:44;96067.25;;;12.11;100.00
19023;BME280;35226;48.606;8.858;2023-05-11T09:05:10;96068.31;;;12.05;100.00
19023;BME280;35226;48.606;8.858;2023-05-11T09:07:37;96069.41;;;12.16;100.00
19023;BME280;35226;48.606;8.858;2023-05-11T09:10:07;96066.50;;;12.20;100.00
19023;BME280;35226;48.606;8.858;2023-05-11T09:12:32;96076.97;;;12.25;100.00
19023;BME280;35226;48.606;8.858;2023-05-11T09:14:58;96079.44;;;12.23;100.00
19023;BME280;35226;48.606;8.858;2023-05-11T09:17:23;96072.81;;;12.30;100.00
19023;BME280;35226;48.606;8.858;2023-05-11T09:20:01;96072.03;;;12.20;100.00
19023;BME280;35226;48.606;8.858;2023-05-11T09:22:31;96075.59;;;12.30;100.00
19023;BME280;35226;48.606;8.858;2023-05-11T09:24:58;96070.69;;;12.34;100.00
19023;BME280;35226;48.606;8.858;2023-05-11T09:27:23;96069.16;;;12.33;100.00
19023;BME280;35226;48.606;8.858;2023-05-11T09:29:51;96064.97;;;12.37;100.00
19023;BME280;35226;48.606;8.858;2023-05-11T09:32:17;96064.66;;;12.35;100.00
19023;BME280;35226;48.606;8.858;2023-05-11T09:34:42;96065.75;;;12.29;100.00
19023;BME280;35226;48.606;8.858;2023-05-11T09:37:15;96060.06;;;12.41;100.00
19023;BME280;35226;48.606;8.858;2023-05-11T09:39:41;96064.84;;;12.41;100.00
19023;BME280;35226;48.606;8.858;2023-05-11T09:42:14;96064.84;;;12.32;100.00
19023;BME280;35226;48.606;8.858;2023-05-11T09:44:41;96060.66;;;12.45;100.00
19023;BME280;35226;48.606;8.858;2023-05-11T09:47:12;96066.69;;;12.53;100.00
19023;BME280;35226;48.606;8.858;2023-05-11T09:49:39;96059.16;;;12.53;100.00
19023;BME280;35226;48.606;8.858;2023-05-11T09:52:11;96050.84;;;12.63;100.00
19023;BME280;35226;48.606;8.858;2023-05-11T09:54:42;96059.28;;;12.50;100.00
19023;BME280;35226;48.606;8.858;2023-05-11T09:57:35;96052.84;;;12.62;100.00
19023;BME280;35226;48.606;8.858;2023-05-11T10:00:00;96057.59;;;12.52;100.00
19023;BME280;35226;48.606;8.858;2023-05-11T10:02:30;96056.66;;;12.46;100.00
19023;BME280;35226;48.606;8.858;2023-05-11T10:04:57;96055.44;;;12.56;100.00
19023;BME280;35226;48.606;8.858;2023-05-11T10:09:51;96052.06;;;12.71;100.00
19023;BME280;35226;48.606;8.858;2023-05-11T10:12:20;96050.19;;;12.77;100.00
19023;BME280;35226;48.606;8.858;2023-05-11T10:14:48;96054.94;;;12.85;100.00
19023;BME280;35226;48.606;8.858;2023-05-11T10:17:16;96052.66;;;12.75;100.00
19023;BME280;35226;48.606;8.858;2023-05-11T10:19:41;96053.41;;;12.84;100.00
19023;BME280;35226;48.606;8.858;2023-05-11T10:22:07;96054.19;;;12.76;100.00
19023;BME280;35226;48.606;8.858;2023-05-11T10:24:33;96050.16;;;12.95;100.00
19023;BME280;35226;48.606;8.858;2023-05-11T10:27:00;96046.47;;;12.89;100.00
19023;BME280;35226;48.606;8.858;2023-05-11T10:29:26;96052.00;;;13.07;100.00
19023;BME280;35226;48.606;8.858;2023-05-11T10:31:52;96044.78;;;13.01;100.00
19023;BME280;35226;48.606;8.858;2023-05-11T10:34:19;96046.13;;;13.05;100.00
19023;BME280;35226;48.606;8.858;2023-05-11T10:36:47;96048.75;;;13.18;100.00
19023;BME280;35226;48.606;8.858;2023-05-11T10:39:14;96050.13;;;13.13;100.00
19023;BME280;35226;48.606;8.858;2023-05-11T10:42:03;96044.25;;;13.29;100.00
19023;BME280;35226;48.606;8.858;2023-05-11T10:53:16;96040.91;;;13.07;100.00
19023;BME280;35226;48.606;8.858;2023-05-11T10:58:46;96046.47;;;12.98;100.00
19023;BME280;35226;48.606;8.858;2023-05-11T11:06:22;96040.50;;;12.72;100.00
19023;BME280;35226;48.606;8.858;2023-05-11T11:08:59;96044.53;;;12.62;100.00
19023;BME280;35226;48.606;8.858;2023-05-11T11:11:29;96046.97;;;12.33;100.00
19023;BME280;35226;48.606;8.858;2023-05-11T11:13:57;96046.50;;;12.34;100.00
19023;BME280;35226;48.606;8.858;2023-05-11T11:16:22;96050.97;;;12.41;100.00
19023;BME280;35226;48.606;8.858;2023-05-11T11:18:50;96045.59;;;12.28;100.00
19023;BME280;35226;48.606;8.858;2023-05-11T11:21:39;96049.28;;;12.43;100.00
19023;BME280;35226;48.606;8.858;2023-05-11T11:38:01;96044.66;;;12.58;100.00
19023;BME280;35226;48.606;8.858;2023-05-11T11:40:46;96039.56;;;12.66;100.00
19023;BME280;35226;48.606;8.858;2023-05-11T11:43:14;96039.25;;;12.73;100.00
19023;BME280;35226;48.606;8.858;2023-05-11T11:45:58;96038.94;;;12.80;100.00
19023;BME280;35226;48.606;8.858;2023-05-11T11:48:32;96032.56;;;13.07;100.00
19023;BME280;35226;48.606;8.858;2023-05-11T11:51:07;96040.28;;;13.03;100.00
19023;BME280;35226;48.606;8.858;2023-05-11T12:01:07;96019.88;;;13.33;100.00
19023;BME280;35226;48.606;8.858;2023-05-11T12:03:37;96013.75;;;13.29;100.00
19023;BME280;35226;48.606;8.858;2023-05-11T12:06:07;96011.97;;;13.50;100.00
19023;BME280;35226;48.606;8.858;2023-05-11T12:08:34;96014.63;;;13.68;100.00
19023;BME280;35226;48.606;8.858;2023-05-11T12:11:02;96016.81;;;13.64;100.00
19023;BME280;35226;48.606;8.858;2023-05-11T12:13:28;96012.28;;;13.76;100.00
19023;BME280;35226;48.606;8.858;2023-05-11T12:16:26;96013.31;;;13.88;100.00
19023;BME280;35226;48.606;8.858;2023-05-11T12:18:57;96010.41;;;14.06;100.00
19023;BME280;35226;48.606;8.858;2023-05-11T12:21:25;96016.41;;;14.04;100.00
19023;BME280;35226;48.606;8.858;2023-05-11T12:24:00;96008.09;;;13.81;100.00
19023;BME280;35226;48.606;8.858;2023-05-11T12:26:28;96010.06;;;13.89;100.00
19023;BME280;35226;48.606;8.858;2023-05-11T12:29:11;96008.25;;;13.77;100.00
19023;BME280;35226;48.606;8.858;2023-05-11T12:31:38;96001.47;;;13.78;100.00
19023;BME280;35226;48.606;8.858;2023-05-11T12:34:04;96005.06;;;14.17;100.00
19023;BME280;35226;48.606;8.858;2023-05-11T12:36:33;96004.09;;;14.20;100.00
19023;BME280;35226;48.606;8.858;2023-05-11T12:38:59;96006.31;;;14.40;100.00
19023;BME280;35226;48.606;8.858;2023-05-11T12:41:25;95999.84;;;14.34;100.00
19023;BME280;35226;48.606;8.858;2023-05-11T12:43:52;95996.56;;;14.59;100.00
19023;BME280;35226;48.606;8.858;2023-05-11T12:46:19;95990.91;;;14.39;100.00
19023;BME280;35226;48.606;8.858;2023-05-11T12:48:46;95998.56;;;14.20;100.00
19023;BME280;35226;48.606;8.858;2023-05-11T12:51:12;95995.91;;;14.26;100.00
19023;BME280;35226;48.606;8.858;2023-05-11T12:53:39;95998.84;;;14.46;100.00
19023;BME280;35226;48.606;8.858;2023-05-11T12:56:06;95995.91;;;14.64;100.00
19023;BME280;35226;48.606;8.858;2023-05-11T12:58:37;95984.97;;;14.61;100.00
19023;BME280;35226;48.606;8.858;2023-05-11T13:01:04;95985.72;;;14.61;100.00
19023;BME280;35226;48.606;8.858;2023-05-11T13:03:32;95979.59;;;14.72;100.00
19023;BME280;35226;48.606;8.858;2023-05-11T13:06:10;95977.91;;;14.74;100.00
19023;BME280;35226;48.606;8.858;2023-05-11T13:08:38;95983.88;;;14.43;100.00
19023;BME280;35226;48.606;8.858;2023-05-11T13:11:19;95976.53;;;14.55;100.00
19023;BME280;35226;48.606;8.858;2023-05-11T13:13:50;95971.53;;;14.44;100.00
19023;BME280;35226;48.606;8.858;2023-05-11T13:16:29;95966.78;;;14.36;100.00
19023;BME280;35226;48.606;8.858;2023-05-11T13:18:59;95976.19;;;14.38;100.00
19023;BME280;35226;48.606;8.858;2023-05-11T13:21:25;95973.47;;;14.53;100.00
19023;BME280;35226;48.606;8.858;2023-05-11T13:23:53;95968.47;;;14.42;100.00
19023;BME280;35226;48.606;8.858;2023-05-11T13:26:23;95964.94;;;14.57;100.00
19023;BME280;35226;48.606;8.858;2023-05-11T13:28:49;95962.94;;;14.57;100.00
19023;BME280;35226;48.606;8.858;2023-05-11T13:31:15;95961.84;;;14.40;100.00
19023;BME280;35226;48.606;8.858;2023-05-11T13:33:42;95964.06;;;14.51;100.00
19023;BME280;35226;48.606;8.858;2023-05-11T13:36:07;95964.16;;;14.56;100.00
19023;BME280;35226;48.606;8.858;2023-05-11T13:38:33;95964.66;;;14.69;100.00
19023;BME280;35226;48.606;8.858;2023-05-11T13:40:58;95961.59;;;14.67;100.00
19023;BME280;35226;48.606;8.858;2023-05-11T13:43:24;95962.94;;;14.57;100.00
19023;BME280;35226;48.606;8.858;2023-05-11T13:45:50;95962.94;;;14.57;100.00
19023;BME280;35226;48.606;8.858;2023-05-11T13:48:15;95962.38;;;14.68;100.00
19023;BME280;35226;48.606;8.858;2023-05-11T13:50:41;95955.63;;;14.60;100.00
19023;BME280;35226;48.606;8.858;2023-05-11T14:43:48;95922.31;;;15.09;100.00
19023;BME280;35226;48.606;8.858;2023-05-11T14:46:15;95923.28;;;15.21;100.00
19023;BME280;35226;48.606;8.858;2023-05-11T14:48:41;95927.22;;;15.14;100.00
19023;BME280;35226;48.606;8.858;2023-05-11T14:51:07;95927.69;;;15.13;100.00
19023;BME280;35226;48.606;8.858;2023-05-11T14:53:32;95920.28;;;15.25;100.00
19023;BME280;35226;48.606;8.858;2023-05-11T14:55:58;95922.44;;;15.00;100.00
19023;BME280;35226;48.606;8.858;2023-05-11T14:58:28;95918.78;;;15.09;100.00